createdAt,value
2018-08-12T00:02:03.988Z,24.60
2018-08-12T00:04:38.002Z,24.90
2018-08-12T00:07:15.087Z,25.20
2018-08-12T00:09:48.660Z,25.60
2018-08-12T00:12:22.057Z,24.90
2018-08-12T00:14:55.751Z,24.30
2018-08-12T00:17:29.107Z,24.50
2018-08-12T00:20:02.329Z,24.20
2018-08-12T00:22:35.719Z,24.00
2018-08-12T00:25:11.670Z,23.40
2018-08-12T00:27:45.438Z,23.10
2018-08-12T00:30:19.706Z,23.50
2018-08-12T00:32:53.410Z,23.70
2018-08-12T00:35:29.237Z,23.40
2018-08-12T00:38:02.317Z,23.20
2018-08-12T00:40:42.905Z,22.90
2018-08-12T00:43:16.395Z,22.80
2018-08-12T00:45:50.249Z,22.70
2018-08-12T00:48:24.903Z,22.50
2018-08-12T00:50:59.323Z,22.50
2018-08-12T00:53:32.764Z,22.60
2018-08-12T00:56:06.239Z,22.10
2018-08-12T00:58:41.723Z,22.30
2018-08-12T01:04:06.558Z,23.00
2018-08-12T01:06:39.750Z,23.80
2018-08-12T01:09:18.030Z,23.50
2018-08-12T01:11:51.469Z,23.40
2018-08-12T01:14:24.480Z,24.50
2018-08-12T01:16:58.911Z,24.30
2018-08-12T01:19:32.179Z,23.30
2018-08-12T01:22:05.872Z,22.90
2018-08-12T01:24:40.601Z,22.80
2018-08-12T01:27:15.419Z,22.90
2018-08-12T01:29:48.460Z,22.30
2018-08-12T01:32:23.235Z,22.30
2018-08-12T01:34:56.754Z,22.60
2018-08-12T01:37:31.116Z,23.20
2018-08-12T01:40:05.415Z,23.90
2018-08-12T01:42:44.830Z,23.50
2018-08-12T01:45:21.106Z,22.80
2018-08-12T01:47:54.125Z,22.10
2018-08-12T01:50:27.418Z,22.10
2018-08-12T01:53:00.755Z,22.40
2018-08-12T01:55:35.345Z,22.40
2018-08-12T01:58:08.475Z,22.30
2018-08-12T02:00:41.625Z,22.00
2018-08-12T02:03:15.809Z,21.20
2018-08-12T02:05:48.828Z,20.80
2018-08-12T02:08:24.462Z,20.90
2018-08-12T02:10:57.868Z,20.90
2018-08-12T02:13:31.176Z,21.00
2018-08-12T02:16:08.819Z,20.80
2018-08-12T02:18:43.019Z,20.80
2018-08-12T02:21:16.275Z,20.70
2018-08-12T02:23:49.784Z,20.90
2018-08-12T02:26:23.520Z,20.90
2018-08-12T02:28:56.978Z,20.70
2018-08-12T02:31:31.779Z,20.60
2018-08-12T02:34:07.463Z,20.50
2018-08-12T02:36:42.283Z,20.40
2018-08-12T02:39:22.461Z,20.40
2018-08-12T02:41:55.862Z,20.30
2018-08-12T02:44:33.851Z,20.10
2018-08-12T02:47:07.280Z,20.20
2018-08-12T02:49:40.296Z,20.10
2018-08-12T02:52:13.278Z,20.00
2018-08-12T02:54:47.604Z,20.00
2018-08-12T02:57:20.879Z,19.90
2018-08-12T02:59:54.515Z,19.80
2018-08-12T03:02:29.134Z,19.80
2018-08-12T03:05:02.834Z,19.70
2018-08-12T03:07:37.217Z,19.70
2018-08-12T03:10:11.512Z,19.70
2018-08-12T03:12:45.271Z,19.70
2018-08-12T03:15:21.409Z,19.70
2018-08-12T03:17:56.956Z,19.60
2018-08-12T03:20:30.676Z,19.50
2018-08-12T03:23:06.596Z,19.40
2018-08-12T03:25:41.358Z,19.30
2018-08-12T03:28:14.550Z,19.20
2018-08-12T03:30:48.680Z,19.20
2018-08-12T03:33:22.402Z,19.20
2018-08-12T03:35:58.618Z,19.20
2018-08-12T03:38:32.415Z,19.10
2018-08-12T03:41:06.395Z,19.10
2018-08-12T03:43:39.532Z,19.00
2018-08-12T03:46:13.259Z,19.00
2018-08-12T03:55:36.157Z,18.90
2018-08-12T03:58:09.574Z,18.80
2018-08-12T04:00:43.789Z,18.80
2018-08-12T04:03:19.149Z,18.80
2018-08-12T04:05:54.699Z,18.80
2018-08-12T04:08:27.646Z,18.70
2018-08-12T04:11:02.083Z,18.70
2018-08-12T04:13:35.768Z,18.60
2018-08-12T04:16:10.731Z,18.60
2018-08-12T04:18:45.199Z,18.50
2018-08-12T04:21:21.254Z,18.50
2018-08-12T04:23:55.678Z,18.50
2018-08-12T04:26:30.115Z,18.50
2018-08-12T04:29:05.832Z,18.50
2018-08-12T04:31:45.809Z,18.50
2018-08-12T04:34:24.695Z,18.50
2018-08-12T04:36:59.194Z,18.40
2018-08-12T04:39:35.959Z,18.40
2018-08-12T04:42:11.170Z,18.30
2018-08-12T04:44:53.531Z,18.30
2018-08-12T04:47:42.662Z,18.30
2018-08-12T04:50:21.515Z,18.30
2018-08-12T04:52:55.318Z,18.30
2018-08-12T04:55:36.843Z,18.30
2018-08-12T04:58:16.550Z,18.30
2018-08-12T05:00:50.475Z,18.20
2018-08-12T05:03:39.309Z,18.20
2018-08-12T05:06:25.322Z,18.20
2018-08-12T05:09:17.468Z,18.10
2018-08-12T05:12:08.255Z,18.10
2018-08-12T05:14:43.076Z,18.10
2018-08-12T05:17:18.114Z,18.10
2018-08-12T05:19:55.050Z,18.00
2018-08-12T05:22:30.589Z,18.00
2018-08-12T05:25:07.850Z,18.00
2018-08-12T05:27:44.374Z,17.90
2018-08-12T05:30:32.503Z,17.90
2018-08-12T05:33:16.304Z,17.80
2018-08-12T05:35:51.237Z,17.80
2018-08-12T05:38:33.837Z,17.80
2018-08-12T05:43:55.644Z,17.80
2018-08-12T05:50:06.920Z,17.80
2018-08-12T05:55:53.689Z,17.80
2018-08-12T05:58:44.584Z,17.80
2018-08-12T06:01:30.814Z,17.80
2018-08-12T06:04:12.487Z,17.70
2018-08-12T06:09:52.918Z,17.60
2018-08-12T06:12:26.212Z,17.60
2018-08-12T06:15:00.096Z,17.60
2018-08-12T06:17:33.380Z,17.70
2018-08-12T06:20:08.858Z,17.70
2018-08-12T06:22:44.778Z,17.60
2018-08-12T06:25:24.594Z,17.60
2018-08-12T06:27:58.382Z,17.60
2018-08-12T06:30:31.892Z,17.50
2018-08-12T06:33:05.962Z,17.40
2018-08-12T06:35:42.291Z,17.30
2018-08-12T06:38:15.956Z,17.20
2018-08-12T06:40:51.103Z,17.20
2018-08-12T06:43:25.649Z,17.20
2018-08-12T06:46:00.029Z,17.20
2018-08-12T06:48:34.482Z,17.20
2018-08-12T06:51:10.654Z,17.20
2018-08-12T06:53:45.818Z,17.10
2018-08-12T06:56:21.244Z,17.10
2018-08-12T06:58:59.409Z,17.10
2018-08-12T07:01:34.274Z,17.10
2018-08-12T07:04:11.232Z,17.00
2018-08-12T07:06:47.211Z,17.00
2018-08-12T07:09:24.487Z,17.00
2018-08-12T07:11:59.762Z,17.00
2018-08-12T07:28:40.948Z,16.90
2018-08-12T07:31:16.435Z,16.80
2018-08-12T07:33:50.702Z,16.70
2018-08-12T07:36:34.841Z,16.70
2018-08-12T07:39:11.420Z,16.70
2018-08-12T07:41:47.780Z,16.70
2018-08-12T07:44:23.548Z,16.70
2018-08-12T15:35:07.472Z,17.60
2018-08-12T15:37:43.830Z,17.70
2018-08-12T15:40:21.629Z,17.60
2018-08-12T15:42:56.052Z,17.80
2018-08-12T15:45:29.934Z,17.90
2018-08-12T15:48:13.237Z,18.10
2018-08-12T15:50:47.173Z,18.40
2018-08-12T15:53:21.451Z,18.60
2018-08-12T15:55:54.966Z,18.60
2018-08-12T15:58:32.588Z,18.60
2018-08-12T16:01:09.857Z,18.70
2018-08-12T16:03:42.758Z,18.60
2018-08-12T16:06:17.914Z,18.80
2018-08-12T16:08:51.254Z,19.10
2018-08-12T16:11:26.754Z,18.90
2018-08-12T16:14:00.720Z,18.90
2018-08-12T16:16:34.417Z,18.90
2018-08-12T16:19:07.777Z,18.90
2018-08-12T16:21:41.009Z,18.90
2018-08-12T16:24:15.694Z,18.70
2018-08-12T16:26:50.436Z,18.60
2018-08-12T16:29:23.802Z,19.00
2018-08-12T16:31:57.203Z,19.00
2018-08-12T16:34:31.684Z,19.00
2018-08-12T16:37:06.578Z,18.90
2018-08-12T16:39:42.488Z,19.10
2018-08-12T16:42:17.943Z,19.40
2018-08-12T16:44:51.932Z,19.50
2018-08-12T16:47:25.921Z,19.30
2018-08-12T16:50:00.918Z,19.20
2018-08-12T16:52:35.408Z,19.30
2018-08-12T16:55:13.159Z,19.50
2018-08-12T16:57:49.472Z,19.50
2018-08-12T17:00:25.828Z,19.70
2018-08-12T17:02:59.256Z,19.50
2018-08-12T17:05:34.209Z,19.50
2018-08-12T17:08:10.071Z,19.50
2018-08-12T17:10:44.258Z,19.40
2018-08-12T17:13:21.848Z,19.70
2018-08-12T17:15:56.240Z,20.00
2018-08-12T17:18:32.201Z,20.30
2018-08-12T17:21:05.705Z,20.40
2018-08-12T17:23:39.070Z,20.30
2018-08-12T17:26:12.677Z,20.30
2018-08-12T17:28:47.099Z,20.40
2018-08-12T17:31:22.065Z,20.10
2018-08-12T17:33:55.726Z,19.90
2018-08-12T17:36:30.061Z,19.70
2018-08-12T17:39:05.459Z,19.70
2018-08-12T17:41:39.685Z,19.80
2018-08-12T17:44:13.801Z,19.50
2018-08-12T17:46:49.601Z,19.30
2018-08-12T17:49:23.674Z,18.90
2018-08-12T17:52:01.532Z,19.10
2018-08-12T17:54:35.132Z,19.20
2018-08-12T17:57:54.683Z,19.30
2018-08-12T18:00:28.277Z,19.30
2018-08-12T18:03:03.294Z,19.40
2018-08-12T18:05:37.343Z,19.50
2018-08-12T18:08:11.294Z,19.40
2018-08-12T18:10:46.059Z,19.20
2018-08-12T18:13:23.518Z,19.10
2018-08-12T18:15:56.829Z,19.10
2018-08-12T18:18:30.194Z,19.10
2018-08-12T18:21:14.732Z,19.30
2018-08-12T18:23:49.685Z,19.30
2018-08-12T18:26:24.989Z,19.40
2018-08-12T18:28:58.548Z,19.40
2018-08-12T18:31:33.219Z,19.30
2018-08-12T18:34:07.326Z,19.20
2018-08-12T18:36:40.789Z,19.30
2018-08-12T18:39:15.636Z,19.60
2018-08-12T18:41:49.870Z,19.70
2018-08-12T18:44:23.312Z,19.80
2018-08-12T18:46:56.691Z,19.80
2018-08-12T18:49:32.773Z,19.80
2018-08-12T18:52:06.888Z,20.00
2018-08-12T18:54:40.201Z,20.10
2018-08-12T18:57:13.536Z,20.00
2018-08-12T18:59:51.347Z,20.10
2018-08-12T19:02:26.921Z,20.10
2018-08-12T19:05:00.484Z,20.30
2018-08-12T19:07:45.973Z,20.20
2018-08-12T19:10:19.350Z,20.20
2018-08-12T19:12:53.009Z,20.10
2018-08-12T19:15:26.902Z,20.00
2018-08-12T19:18:06.905Z,20.10
2018-08-12T19:20:42.171Z,20.20
2018-08-12T19:23:22.536Z,20.30
2018-08-12T19:25:57.583Z,20.50
2018-08-12T19:28:32.176Z,20.80
2018-08-12T19:31:11.762Z,21.10
2018-08-12T19:33:49.998Z,21.30
2018-08-12T19:36:23.857Z,21.50
2018-08-12T19:38:59.948Z,21.90
2018-08-12T19:41:33.324Z,21.80
2018-08-12T19:44:08.104Z,21.60
2018-08-12T19:46:42.926Z,21.80
2018-08-12T19:49:16.628Z,21.80
2018-08-12T19:51:51.799Z,21.90
2018-08-12T19:54:25.126Z,22.20
2018-08-12T19:56:58.466Z,22.40
2018-08-12T19:59:35.437Z,22.20
2018-08-12T20:02:10.889Z,22.00
2018-08-12T20:04:44.132Z,22.20
2018-08-12T20:07:17.548Z,22.00
2018-08-12T20:09:52.573Z,21.90
2018-08-12T20:12:26.179Z,22.20
2018-08-12T20:15:00.996Z,22.10
2018-08-12T20:17:35.231Z,22.10
2018-08-12T20:20:10.117Z,22.30
2018-08-12T20:22:45.253Z,21.90
2018-08-12T20:25:20.243Z,21.90
2018-08-12T20:27:53.637Z,22.00
2018-08-12T20:30:26.883Z,22.00
2018-08-12T20:33:00.761Z,22.20
2018-08-12T20:35:35.170Z,22.40
2018-08-12T20:38:09.918Z,22.40
2018-08-12T20:40:44.196Z,21.90
2018-08-12T20:43:17.983Z,22.00
2018-08-12T20:45:53.170Z,22.30
2018-08-12T20:48:28.068Z,22.60
2018-08-12T20:51:01.436Z,22.70
2018-08-12T20:53:35.222Z,22.50
2018-08-12T20:56:09.949Z,22.60
2018-08-12T20:58:43.793Z,22.60
2018-08-12T21:01:17.130Z,22.60
2018-08-12T21:03:50.845Z,22.40
2018-08-12T21:06:24.073Z,22.60
2018-08-12T21:09:00.458Z,22.80
2018-08-12T21:11:34.012Z,22.50
2018-08-12T21:14:09.009Z,22.50
2018-08-12T21:16:59.026Z,22.80
2018-08-12T21:19:36.096Z,23.10
2018-08-12T21:22:10.824Z,23.40
2018-08-12T21:24:46.427Z,23.30
2018-08-12T21:27:20.191Z,23.50
2018-08-12T21:29:55.944Z,23.30
2018-08-12T21:32:31.836Z,23.60
2018-08-12T21:35:07.552Z,24.00
2018-08-12T21:37:41.394Z,24.20
2018-08-12T21:40:14.767Z,23.90
2018-08-12T21:42:50.391Z,24.00
2018-08-12T21:45:24.835Z,23.80
2018-08-12T21:47:59.830Z,24.00
2018-08-12T21:50:38.062Z,24.30
2018-08-12T21:53:13.599Z,24.20
2018-08-12T21:55:48.366Z,24.30
2018-08-12T21:58:22.857Z,24.00
2018-08-12T22:00:59.170Z,24.10
2018-08-12T22:03:32.861Z,24.30
2018-08-12T22:06:08.550Z,24.30
2018-08-12T22:08:41.968Z,24.20
2018-08-12T22:11:15.984Z,24.20
2018-08-12T22:13:52.771Z,24.00
2018-08-12T22:16:27.408Z,24.00
2018-08-12T22:19:01.490Z,23.80
2018-08-12T22:21:34.976Z,23.80
2018-08-12T22:24:08.845Z,23.80
2018-08-12T22:26:43.779Z,23.50
2018-08-12T22:29:19.138Z,23.40
2018-08-12T22:31:55.114Z,23.40
2018-08-12T22:34:31.853Z,23.30
2018-08-12T22:37:07.031Z,23.60
2018-08-12T22:39:41.739Z,23.60
2018-08-12T22:42:17.543Z,23.30
2018-08-12T22:44:52.667Z,23.70
2018-08-12T22:47:26.332Z,23.80
2018-08-12T22:50:01.642Z,23.30
2018-08-12T22:52:36.911Z,23.30
2018-08-12T22:55:14.047Z,23.30
2018-08-12T22:57:49.269Z,23.40
2018-08-12T23:00:24.558Z,23.40
2018-08-12T23:03:01.983Z,23.40
2018-08-12T23:05:37.898Z,23.00
2018-08-12T23:08:14.719Z,22.80
2018-08-12T23:10:51.265Z,23.00
2018-08-12T23:13:26.440Z,23.00
2018-08-12T23:16:34.093Z,23.00
2018-08-12T23:19:08.876Z,23.00
2018-08-12T23:21:44.832Z,23.10
2018-08-12T23:24:19.613Z,23.10
2018-08-12T23:26:53.506Z,23.10
2018-08-12T23:29:29.909Z,22.80
2018-08-12T23:32:04.083Z,23.00
2018-08-12T23:34:42.339Z,23.10
2018-08-12T23:37:18.109Z,23.10
2018-08-12T23:39:52.696Z,23.20
2018-08-12T23:42:27.362Z,23.20
2018-08-12T23:45:04.887Z,23.20
2018-08-12T23:47:39.705Z,23.20
2018-08-12T23:50:16.647Z,23.50
2018-08-12T23:52:49.883Z,23.70
2018-08-12T23:55:23.946Z,23.70
2018-08-12T23:57:57.457Z,23.90
